sensor_id;sensor_type;location;lat;lon;timestamp;temperature;humidity
25945;SHT31;13742;49.306;8.636;2023-05-13T00:00:01;13.41;79.03
25945;SHT31;13742;49.306;8.636;2023-05-13T00:01:01;13.34;79.50
25945;SHT31;13742;49.306;8.636;2023-05-13T00:02:01;13.30;79.58
25945;SHT31;13742;49.306;8.636;2023-05-13T00:03:01;13.28;79.84
25945;SHT31;13742;49.306;8.636;2023-05-13T00:04:01;13.28;79.82
25945;SHT31;13742;49.306;8.636;2023-05-13T00:05:01;13.24;79.71
25945;SHT31;13742;49.306;8.636;2023-05-13T00:06:01;13.24;79.91
25945;SHT31;13742;49.306;8.636;2023-05-13T00:07:01;13.14;80.03
25945;SHT31;13742;49.306;8.636;2023-05-13T00:08:06;13.06;80.31
25945;SHT31;13742;49.306;8.636;2023-05-13T00:09:02;12.97;80.37
25945;SHT31;13742;49.306;8.636;2023-05-13T00:10:01;12.99;80.71
25945;SHT31;13742;49.306;8.636;2023-05-13T00:11:01;12.91;80.85
25945;SHT31;13742;49.306;8.636;2023-05-13T00:12:02;12.96;80.68
25945;SHT31;13742;49.306;8.636;2023-05-13T00:13:01;12.96;80.75
25945;SHT31;13742;49.306;8.636;2023-05-13T00:14:01;12.97;80.79
25945;SHT31;13742;49.306;8.636;2023-05-13T00:15:02;13.00;80.36
25945;SHT31;13742;49.306;8.636;2023-05-13T00:16:02;12.99;80.54
25945;SHT31;13742;49.306;8.636;2023-05-13T00:17:03;13.00;80.51
25945;SHT31;13742;49.306;8.636;2023-05-13T00:18:01;13.00;80.40
25945;SHT31;13742;49.306;8.636;2023-05-13T00:19:01;12.84;81.12
25945;SHT31;13742;49.306;8.636;2023-05-13T00:20:01;12.62;82.19
25945;SHT31;13742;49.306;8.636;2023-05-13T00:21:01;12.72;81.60
25945;SHT31;13742;49.306;8.636;2023-05-13T00:22:01;12.80;81.35
25945;SHT31;13742;49.306;8.636;2023-05-13T00:23:02;12.83;81.72
25945;SHT31;13742;49.306;8.636;2023-05-13T00:24:01;12.86;81.52
25945;SHT31;13742;49.306;8.636;2023-05-13T00:25:01;12.87;81.37
25945;SHT31;13742;49.306;8.636;2023-05-13T00:26:01;12.87;81.04
25945;SHT31;13742;49.306;8.636;2023-05-13T00:27:01;12.91;81.33
25945;SHT31;13742;49.306;8.636;2023-05-13T00:28:01;12.62;81.83
25945;SHT31;13742;49.306;8.636;2023-05-13T00:29:01;12.48;82.95
25945;SHT31;13742;49.306;8.636;2023-05-13T00:30:01;12.52;82.98
25945;SHT31;13742;49.306;8.636;2023-05-13T00:31:01;12.59;82.15
25945;SHT31;13742;49.306;8.636;2023-05-13T00:32:01;12.63;82.37
25945;SHT31;13742;49.306;8.636;2023-05-13T00:33:01;12.67;82.16
25945;SHT31;13742;49.306;8.636;2023-05-13T00:34:02;12.67;81.97
25945;SHT31;13742;49.306;8.636;2023-05-13T00:35:01;12.69;81.72
25945;SHT31;13742;49.306;8.636;2023-05-13T00:36:01;12.73;82.20
25945;SHT31;13742;49.306;8.636;2023-05-13T00:37:01;12.74;82.04
25945;SHT31;13742;49.306;8.636;2023-05-13T00:38:01;12.60;82.49
25945;SHT31;13742;49.306;8.636;2023-05-13T00:39:01;12.52;83.09
25945;SHT31;13742;49.306;8.636;2023-05-13T00:40:01;12.51;83.16
25945;SHT31;13742;49.306;8.636;2023-05-13T00:41:02;12.57;82.92
25945;SHT31;13742;49.306;8.636;2023-05-13T00:42:04;12.59;82.85
25945;SHT31;13742;49.306;8.636;2023-05-13T00:43:01;12.66;82.80
25945;SHT31;13742;49.306;8.636;2023-05-13T00:44:01;12.56;82.89
25945;SHT31;13742;49.306;8.636;2023-05-13T00:45:01;12.45;83.50
25945;SHT31;13742;49.306;8.636;2023-05-13T00:46:01;12.55;83.08
25945;SHT31;13742;49.306;8.636;2023-05-13T00:47:01;12.56;82.82
25945;SHT31;13742;49.306;8.636;2023-05-13T00:48:04;12.59;82.93
25945;SHT31;13742;49.306;8.636;2023-05-13T00:49:03;12.57;82.69
25945;SHT31;13742;49.306;8.636;2023-05-13T00:50:02;12.62;82.91
25945;SHT31;13742;49.306;8.636;2023-05-13T00:51:01;12.64;82.67
25945;SHT31;13742;49.306;8.636;2023-05-13T00:52:01;12.62;82.51
25945;SHT31;13742;49.306;8.636;2023-05-13T00:53:02;12.63;82.51
25945;SHT31;13742;49.306;8.636;2023-05-13T00:54:01;12.63;82.30
25945;SHT31;13742;49.306;8.636;2023-05-13T00:55:02;12.62;82.24
25945;SHT31;13742;49.306;8.636;2023-05-13T00:56:01;12.64;82.07
25945;SHT31;13742;49.306;8.636;2023-05-13T00:57:01;12.62;82.15
25945;SHT31;13742;49.306;8.636;2023-05-13T00:58:01;12.64;82.38
25945;SHT31;13742;49.306;8.636;2023-05-13T00:59:01;12.64;82.31
25945;SHT31;13742;49.306;8.636;2023-05-13T01:00:02;12.64;82.31
25945;SHT31;13742;49.306;8.636;2023-05-13T01:02:10;12.63;82.02
25945;SHT31;13742;49.306;8.636;2023-05-13T01:03:11;12.63;82.16
25945;SHT31;13742;49.306;8.636;2023-05-13T01:05:25;12.66;82.04
25945;SHT31;13742;49.306;8.636;2023-05-13T01:06:09;12.64;82.42
25945;SHT31;13742;49.306;8.636;2023-05-13T01:07:10;12.64;82.03
25945;SHT31;13742;49.306;8.636;2023-05-13T01:08:14;12.63;81.83
25945;SHT31;13742;49.306;8.636;2023-05-13T01:09:12;12.62;81.80
25945;SHT31;13742;49.306;8.636;2023-05-13T01:11:07;12.59;81.79
25945;SHT31;13742;49.306;8.636;2023-05-13T01:12:06;12.60;82.16
25945;SHT31;13742;49.306;8.636;2023-05-13T01:13:07;12.60;82.02
25945;SHT31;13742;49.306;8.636;2023-05-13T01:14:10;12.62;81.93
25945;SHT31;13742;49.306;8.636;2023-05-13T01:15:07;12.59;81.88
25945;SHT31;13742;49.306;8.636;2023-05-13T01:16:11;12.62;82.00
25945;SHT31;13742;49.306;8.636;2023-05-13T01:17:08;12.57;81.92
25945;SHT31;13742;49.306;8.636;2023-05-13T01:18:07;12.57;81.85
25945;SHT31;13742;49.306;8.636;2023-05-13T01:19:08;12.60;81.96
25945;SHT31;13742;49.306;8.636;2023-05-13T01:20:02;12.59;81.86
25945;SHT31;13742;49.306;8.636;2023-05-13T01:21:02;12.59;81.77
25945;SHT31;13742;49.306;8.636;2023-05-13T01:22:01;12.60;82.04
25945;SHT31;13742;49.306;8.636;2023-05-13T01:23:03;12.60;81.80
25945;SHT31;13742;49.306;8.636;2023-05-13T01:24:01;12.60;81.76
25945;SHT31;13742;49.306;8.636;2023-05-13T01:25:01;12.57;81.72
25945;SHT31;13742;49.306;8.636;2023-05-13T01:26:01;12.60;81.65
25945;SHT31;13742;49.306;8.636;2023-05-13T01:27:01;12.60;81.96
25945;SHT31;13742;49.306;8.636;2023-05-13T01:28:01;12.60;81.81
25945;SHT31;13742;49.306;8.636;2023-05-13T01:29:01;12.57;81.78
25945;SHT31;13742;49.306;8.636;2023-05-13T01:30:02;12.57;81.62
25945;SHT31;13742;49.306;8.636;2023-05-13T01:31:01;12.56;81.68
25945;SHT31;13742;49.306;8.636;2023-05-13T01:32:02;12.56;81.65
25945;SHT31;13742;49.306;8.636;2023-05-13T01:33:01;12.56;81.58
25945;SHT31;13742;49.306;8.636;2023-05-13T01:34:02;12.55;81.60
25945;SHT31;13742;49.306;8.636;2023-05-13T01:35:02;12.55;81.60
25945;SHT31;13742;49.306;8.636;2023-05-13T01:36:02;12.53;81.90
25945;SHT31;13742;49.306;8.636;2023-05-13T01:37:02;12.45;81.91
25945;SHT31;13742;49.306;8.636;2023-05-13T01:38:01;12.46;82.18
25945;SHT31;13742;49.306;8.636;2023-05-13T01:39:02;12.46;81.79
25945;SHT31;13742;49.306;8.636;2023-05-13T01:40:01;12.42;81.73
25945;SHT31;13742;49.306;8.636;2023-05-13T01:41:01;12.45;81.96
25945;SHT31;13742;49.306;8.636;2023-05-13T01:42:01;12.43;81.82
25945;SHT31;13742;49.306;8.636;2023-05-13T01:43:01;12.46;81.77
25945;SHT31;13742;49.306;8.636;2023-05-13T01:44:01;12.45;81.70
25945;SHT31;13742;49.306;8.636;2023-05-13T01:45:02;12.46;81.91
25945;SHT31;13742;49.306;8.636;2023-05-13T01:46:01;12.43;81.56
25945;SHT31;13742;49.306;8.636;2023-05-13T01:47:01;12.41;81.69
25945;SHT31;13742;49.306;8.636;2023-05-13T01:48:01;12.41;81.58
25945;SHT31;13742;49.306;8.636;2023-05-13T01:49:01;12.39;81.68
25945;SHT31;13742;49.306;8.636;2023-05-13T01:50:01;12.43;81.65
25945;SHT31;13742;49.306;8.636;2023-05-13T01:51:01;12.45;81.51
25945;SHT31;13742;49.306;8.636;2023-05-13T01:52:03;12.41;81.43
25945;SHT31;13742;49.306;8.636;2023-05-13T01:53:01;12.43;81.63
25945;SHT31;13742;49.306;8.636;2023-05-13T01:54:01;12.42;81.60
25945;SHT31;13742;49.306;8.636;2023-05-13T01:55:01;12.42;81.40
25945;SHT31;13742;49.306;8.636;2023-05-13T01:56:01;12.42;81.31
25945;SHT31;13742;49.306;8.636;2023-05-13T01:57:02;12.43;81.31
25945;SHT31;13742;49.306;8.636;2023-05-13T01:58:01;12.42;81.34
25945;SHT31;13742;49.306;8.636;2023-05-13T01:59:01;12.41;81.39
25945;SHT31;13742;49.306;8.636;2023-05-13T02:00:01;12.45;81.45
25945;SHT31;13742;49.306;8.636;2023-05-13T02:01:02;12.42;81.24
25945;SHT31;13742;49.306;8.636;2023-05-13T02:02:01;12.39;81.19
25945;SHT31;13742;49.306;8.636;2023-05-13T02:03:02;12.41;81.25
25945;SHT31;13742;49.306;8.636;2023-05-13T02:04:01;12.38;81.16
25945;SHT31;13742;49.306;8.636;2023-05-13T02:05:01;12.36;81.36
25945;SHT31;13742;49.306;8.636;2023-05-13T02:06:02;12.36;81.23
25945;SHT31;13742;49.306;8.636;2023-05-13T02:07:01;12.39;81.41
25945;SHT31;13742;49.306;8.636;2023-05-13T02:08:01;12.36;81.21
25945;SHT31;13742;49.306;8.636;2023-05-13T02:09:01;12.38;81.39
25945;SHT31;13742;49.306;8.636;2023-05-13T02:10:01;12.36;81.35
25945;SHT31;13742;49.306;8.636;2023-05-13T02:11:01;12.35;81.28
25945;SHT31;13742;49.306;8.636;2023-05-13T02:12:01;12.35;81.22
25945;SHT31;13742;49.306;8.636;2023-05-13T02:13:01;12.35;81.20
25945;SHT31;13742;49.306;8.636;2023-05-13T02:14:01;12.33;81.30
25945;SHT31;13742;49.306;8.636;2023-05-13T02:15:01;12.35;81.20
25945;SHT31;13742;49.306;8.636;2023-05-13T02:16:01;12.32;81.21
25945;SHT31;13742;49.306;8.636;2023-05-13T02:17:02;12.31;81.11
25945;SHT31;13742;49.306;8.636;2023-05-13T02:18:01;12.32;81.12
25945;SHT31;13742;49.306;8.636;2023-05-13T02:19:01;12.29;81.16
25945;SHT31;13742;49.306;8.636;2023-05-13T02:20:01;12.29;81.02
25945;SHT31;13742;49.306;8.636;2023-05-13T02:21:01;12.28;81.04
25945;SHT31;13742;49.306;8.636;2023-05-13T02:22:01;12.25;81.07
25945;SHT31;13742;49.306;8.636;2023-05-13T02:23:01;12.22;81.07
25945;SHT31;13742;49.306;8.636;2023-05-13T02:24:01;12.24;81.03
25945;SHT31;13742;49.306;8.636;2023-05-13T02:25:03;12.22;81.00
25945;SHT31;13742;49.306;8.636;2023-05-13T02:26:01;12.21;81.01
25945;SHT31;13742;49.306;8.636;2023-05-13T02:27:01;12.18;80.99
25945;SHT31;13742;49.306;8.636;2023-05-13T02:28:01;12.21;81.00
25945;SHT31;13742;49.306;8.636;2023-05-13T02:29:01;12.17;81.03
25945;SHT31;13742;49.306;8.636;2023-05-13T02:30:01;12.17;81.05
25945;SHT31;13742;49.306;8.636;2023-05-13T02:31:01;12.14;80.99
25945;SHT31;13742;49.306;8.636;2023-05-13T02:32:01;12.14;81.15
25945;SHT31;13742;49.306;8.636;2023-05-13T02:33:01;12.11;81.06
25945;SHT31;13742;49.306;8.636;2023-05-13T02:34:01;12.11;81.22
25945;SHT31;13742;49.306;8.636;2023-05-13T02:35:01;12.12;81.17
25945;SHT31;13742;49.306;8.636;2023-05-13T02:36:01;12.11;81.22
25945;SHT31;13742;49.306;8.636;2023-05-13T02:37:02;12.08;81.06
25945;SHT31;13742;49.306;8.636;2023-05-13T02:38:03;12.05;81.03
25945;SHT31;13742;49.306;8.636;2023-05-13T02:39:01;12.04;81.00
25945;SHT31;13742;49.306;8.636;2023-05-13T02:40:03;12.05;81.08
25945;SHT31;13742;49.306;8.636;2023-05-13T02:41:01;12.01;81.11
25945;SHT31;13742;49.306;8.636;2023-05-13T02:42:02;12.02;81.39
25945;SHT31;13742;49.306;8.636;2023-05-13T02:43:01;12.02;81.46
25945;SHT31;13742;49.306;8.636;2023-05-13T02:44:01;11.95;81.19
25945;SHT31;13742;49.306;8.636;2023-05-13T02:45:01;11.95;81.29
25945;SHT31;13742;49.306;8.636;2023-05-13T02:46:02;11.94;81.43
25945;SHT31;13742;49.306;8.636;2023-05-13T02:47:01;11.97;81.53
25945;SHT31;13742;49.306;8.636;2023-05-13T02:48:01;11.94;81.34
25945;SHT31;13742;49.306;8.636;2023-05-13T02:49:01;11.95;81.28
25945;SHT31;13742;49.306;8.636;2023-05-13T02:50:02;11.95;81.37
25945;SHT31;13742;49.306;8.636;2023-05-13T02:51:01;11.97;81.29
25945;SHT31;13742;49.306;8.636;2023-05-13T02:52:01;11.91;81.18
25945;SHT31;13742;49.306;8.636;2023-05-13T02:53:01;11.94;81.15
25945;SHT31;13742;49.306;8.636;2023-05-13T02:54:01;11.92;81.23
25945;SHT31;13742;49.306;8.636;2023-05-13T02:55:01;11.90;81.23
25945;SHT31;13742;49.306;8.636;2023-05-13T02:56:01;11.92;81.54
25945;SHT31;13742;49.306;8.636;2023-05-13T02:57:01;11.92;81.31
25945;SHT31;13742;49.306;8.636;2023-05-13T02:58:01;11.91;81.40
25945;SHT31;13742;49.306;8.636;2023-05-13T02:59:01;11.88;81.22
25945;SHT31;13742;49.306;8.636;2023-05-13T03:00:02;11.90;81.24
25945;SHT31;13742;49.306;8.636;2023-05-13T03:01:01;11.91;81.45
25945;SHT31;13742;49.306;8.636;2023-05-13T03:02:01;11.90;81.37
25945;SHT31;13742;49.306;8.636;2023-05-13T03:03:01;11.85;81.36
25945;SHT31;13742;49.306;8.636;2023-05-13T03:04:01;11.85;81.26
25945;SHT31;13742;49.306;8.636;2023-05-13T03:05:01;11.76;81.02
25945;SHT31;13742;49.306;8.636;2023-05-13T03:06:01;11.78;81.21
25945;SHT31;13742;49.306;8.636;2023-05-13T03:07:01;11.76;81.14
25945;SHT31;13742;49.306;8.636;2023-05-13T03:08:01;11.74;81.46
25945;SHT31;13742;49.306;8.636;2023-05-13T03:09:01;11.71;81.50
25945;SHT31;13742;49.306;8.636;2023-05-13T03:10:01;11.71;81.38
25945;SHT31;13742;49.306;8.636;2023-05-13T03:11:01;11.71;81.31
25945;SHT31;13742;49.306;8.636;2023-05-13T03:12:01;11.71;81.22
25945;SHT31;13742;49.306;8.636;2023-05-13T03:13:01;11.71;81.13
25945;SHT31;13742;49.306;8.636;2023-05-13T03:14:01;11.67;81.13
25945;SHT31;13742;49.306;8.636;2023-05-13T03:15:02;11.64;81.26
25945;SHT31;13742;49.306;8.636;2023-05-13T03:16:01;11.64;81.11
25945;SHT31;13742;49.306;8.636;2023-05-13T03:17:05;11.64;81.29
25945;SHT31;13742;49.306;8.636;2023-05-13T03:18:01;11.61;81.18
25945;SHT31;13742;49.306;8.636;2023-05-13T03:19:01;11.64;81.22
25945;SHT31;13742;49.306;8.636;2023-05-13T03:20:01;11.60;81.45
25945;SHT31;13742;49.306;8.636;2023-05-13T03:21:01;11.60;81.21
25945;SHT31;13742;49.306;8.636;2023-05-13T03:22:02;11.57;81.26
25945;SHT31;13742;49.306;8.636;2023-05-13T03:23:01;11.56;81.72
25945;SHT31;13742;49.306;8.636;2023-05-13T03:24:01;11.56;81.42
25945;SHT31;13742;49.306;8.636;2023-05-13T03:25:01;11.56;81.38
25945;SHT31;13742;49.306;8.636;2023-05-13T03:26:01;11.53;81.42
25945;SHT31;13742;49.306;8.636;2023-05-13T03:27:01;11.50;81.43
25945;SHT31;13742;49.306;8.636;2023-05-13T03:28:02;11.49;81.39
25945;SHT31;13742;49.306;8.636;2023-05-13T03:29:01;11.47;81.33
25945;SHT31;13742;49.306;8.636;2023-05-13T03:30:01;11.46;81.38
25945;SHT31;13742;49.306;8.636;2023-05-13T03:31:01;11.47;81.61
25945;SHT31;13742;49.306;8.636;2023-05-13T03:32:02;11.46;81.42
25945;SHT31;13742;49.306;8.636;2023-05-13T03:33:01;11.46;81.70
25945;SHT31;13742;49.306;8.636;2023-05-13T03:34:01;11.45;81.53
25945;SHT31;13742;49.306;8.636;2023-05-13T03:35:01;11.43;81.50
25945;SHT31;13742;49.306;8.636;2023-05-13T03:36:01;11.43;81.60
25945;SHT31;13742;49.306;8.636;2023-05-13T03:37:01;11.43;81.59
25945;SHT31;13742;49.306;8.636;2023-05-13T03:38:01;11.42;81.55
25945;SHT31;13742;49.306;8.636;2023-05-13T03:39:01;11.42;81.52
25945;SHT31;13742;49.306;8.636;2023-05-13T03:40:01;11.43;81.71
25945;SHT31;13742;49.306;8.636;2023-05-13T03:41:01;11.42;81.51
25945;SHT31;13742;49.306;8.636;2023-05-13T03:42:02;11.39;81.63
25945;SHT31;13742;49.306;8.636;2023-05-13T03:43:01;11.40;81.68
25945;SHT31;13742;49.306;8.636;2023-05-13T03:44:01;11.40;81.71
25945;SHT31;13742;49.306;8.636;2023-05-13T03:45:01;11.42;81.80
25945;SHT31;13742;49.306;8.636;2023-05-13T03:46:01;11.43;81.71
25945;SHT31;13742;49.306;8.636;2023-05-13T03:47:01;11.43;81.79
25945;SHT31;13742;49.306;8.636;2023-05-13T03:48:01;11.43;81.86
25945;SHT31;13742;49.306;8.636;2023-05-13T03:49:01;11.42;81.90
25945;SHT31;13742;49.306;8.636;2023-05-13T03:50:01;11.42;81.66
25945;SHT31;13742;49.306;8.636;2023-05-13T03:51:01;11.40;81.65
25945;SHT31;13742;49.306;8.636;2023-05-13T03:52:01;11.36;81.56
25945;SHT31;13742;49.306;8.636;2023-05-13T03:53:01;11.35;81.47
25945;SHT31;13742;49.306;8.636;2023-05-13T03:54:01;11.36;81.77
25945;SHT31;13742;49.306;8.636;2023-05-13T03:55:01;11.32;81.80
25945;SHT31;13742;49.306;8.636;2023-05-13T03:56:01;11.33;81.67
25945;SHT31;13742;49.306;8.636;2023-05-13T03:57:01;11.29;82.09
25945;SHT31;13742;49.306;8.636;2023-05-13T03:58:13;11.29;81.98
25945;SHT31;13742;49.306;8.636;2023-05-13T03:59:01;11.27;82.10
25945;SHT31;13742;49.306;8.636;2023-05-13T04:00:01;11.27;82.01
25945;SHT31;13742;49.306;8.636;2023-05-13T04:01:01;11.27;82.02
25945;SHT31;13742;49.306;8.636;2023-05-13T04:02:01;11.25;81.90
25945;SHT31;13742;49.306;8.636;2023-05-13T04:03:01;11.26;82.37
25945;SHT31;13742;49.306;8.636;2023-05-13T04:04:01;11.23;83.46
25945;SHT31;13742;49.306;8.636;2023-05-13T04:05:01;11.23;82.82
25945;SHT31;13742;49.306;8.636;2023-05-13T04:06:01;11.25;83.20
25945;SHT31;13742;49.306;8.636;2023-05-13T04:07:01;11.29;82.77
25945;SHT31;13742;49.306;8.636;2023-05-13T04:08:01;11.29;82.91
25945;SHT31;13742;49.306;8.636;2023-05-13T04:09:03;11.29;82.65
25945;SHT31;13742;49.306;8.636;2023-05-13T04:10:01;11.26;82.50
25945;SHT31;13742;49.306;8.636;2023-05-13T04:11:01;11.26;82.46
25945;SHT31;13742;49.306;8.636;2023-05-13T04:12:02;11.27;82.44
25945;SHT31;13742;49.306;8.636;2023-05-13T04:13:01;11.25;82.21
25945;SHT31;13742;49.306;8.636;2023-05-13T04:14:01;11.23;82.16
25945;SHT31;13742;49.306;8.636;2023-05-13T04:15:01;11.23;82.22
25945;SHT31;13742;49.306;8.636;2023-05-13T04:16:01;11.23;82.13
25945;SHT31;13742;49.306;8.636;2023-05-13T04:17:01;11.22;82.48
25945;SHT31;13742;49.306;8.636;2023-05-13T04:18:01;11.22;82.37
25945;SHT31;13742;49.306;8.636;2023-05-13T04:19:01;11.23;82.68
25945;SHT31;13742;49.306;8.636;2023-05-13T04:20:01;11.23;82.64
25945;SHT31;13742;49.306;8.636;2023-05-13T04:21:06;11.21;82.37
25945;SHT31;13742;49.306;8.636;2023-05-13T04:22:01;11.21;82.90
25945;SHT31;13742;49.306;8.636;2023-05-13T04:23:01;11.22;82.71
25945;SHT31;13742;49.306;8.636;2023-05-13T04:24:01;11.19;82.93
25945;SHT31;13742;49.306;8.636;2023-05-13T04:25:01;11.19;82.88
25945;SHT31;13742;49.306;8.636;2023-05-13T04:26:01;11.19;82.69
25945;SHT31;13742;49.306;8.636;2023-05-13T04:27:01;11.16;82.50
25945;SHT31;13742;49.306;8.636;2023-05-13T04:28:01;11.15;83.25
25945;SHT31;13742;49.306;8.636;2023-05-13T04:29:01;11.12;83.70
25945;SHT31;13742;49.306;8.636;2023-05-13T04:30:01;11.11;83.61
25945;SHT31;13742;49.306;8.636;2023-05-13T04:31:02;11.11;83.65
25945;SHT31;13742;49.306;8.636;2023-05-13T04:32:01;11.09;83.45
25945;SHT31;13742;49.306;8.636;2023-05-13T04:33:01;11.09;83.62
25945;SHT31;13742;49.306;8.636;2023-05-13T04:34:01;11.08;83.80
25945;SHT31;13742;49.306;8.636;2023-05-13T04:35:01;11.06;83.62
25945;SHT31;13742;49.306;8.636;2023-05-13T04:36:01;11.11;83.75
25945;SHT31;13742;49.306;8.636;2023-05-13T04:37:01;11.09;83.35
25945;SHT31;13742;49.306;8.636;2023-05-13T04:38:01;11.06;83.41
25945;SHT31;13742;49.306;8.636;2023-05-13T04:39:01;11.08;83.19
25945;SHT31;13742;49.306;8.636;2023-05-13T04:40:01;11.08;83.24
25945;SHT31;13742;49.306;8.636;2023-05-13T04:41:01;11.11;83.12
25945;SHT31;13742;49.306;8.636;2023-05-13T04:42:01;11.12;83.89
25945;SHT31;13742;49.306;8.636;2023-05-13T04:43:01;11.13;83.91
25945;SHT31;13742;49.306;8.636;2023-05-13T04:44:01;11.12;84.08
25945;SHT31;13742;49.306;8.636;2023-05-13T04:45:01;11.12;83.64
25945;SHT31;13742;49.306;8.636;2023-05-13T04:46:01;11.13;83.84
25945;SHT31;13742;49.306;8.636;2023-05-13T04:47:01;11.16;83.51
25945;SHT31;13742;49.306;8.636;2023-05-13T04:48:01;11.16;83.72
25945;SHT31;13742;49.306;8.636;2023-05-13T04:49:01;11.19;84.05
25945;SHT31;13742;49.306;8.636;2023-05-13T04:50:01;11.22;83.78
25945;SHT31;13742;49.306;8.636;2023-05-13T04:51:01;11.22;83.58
25945;SHT31;13742;49.306;8.636;2023-05-13T04:52:02;11.25;84.05
25945;SHT31;13742;49.306;8.636;2023-05-13T04:53:01;11.25;84.46
25945;SHT31;13742;49.306;8.636;2023-05-13T04:54:01;11.25;83.84
25945;SHT31;13742;49.306;8.636;2023-05-13T04:55:01;11.27;83.68
25945;SHT31;13742;49.306;8.636;2023-05-13T04:56:01;11.27;83.73
25945;SHT31;13742;49.306;8.636;2023-05-13T04:57:01;11.32;83.99
25945;SHT31;13742;49.306;8.636;2023-05-13T04:58:01;11.32;84.21
25945;SHT31;13742;49.306;8.636;2023-05-13T04:59:01;11.35;84.00
25945;SHT31;13742;49.306;8.636;2023-05-13T05:00:02;11.36;84.15
25945;SHT31;13742;49.306;8.636;2023-05-13T05:01:01;11.39;84.18
25945;SHT31;13742;49.306;8.636;2023-05-13T05:02:01;11.39;84.02
25945;SHT31;13742;49.306;8.636;2023-05-13T05:03:01;11.40;83.86
25945;SHT31;13742;49.306;8.636;2023-05-13T05:04:01;11.42;83.64
25945;SHT31;13742;49.306;8.636;2023-05-13T05:05:01;11.46;83.52
25945;SHT31;13742;49.306;8.636;2023-05-13T05:06:01;11.47;83.80
25945;SHT31;13742;49.306;8.636;2023-05-13T05:07:01;11.50;83.67
25945;SHT31;13742;49.306;8.636;2023-05-13T05:08:01;11.53;83.50
25945;SHT31;13742;49.306;8.636;2023-05-13T05:09:01;11.53;83.39
25945;SHT31;13742;49.306;8.636;2023-05-13T05:10:01;11.56;83.57
25945;SHT31;13742;49.306;8.636;2023-05-13T05:11:01;11.57;83.44
25945;SHT31;13742;49.306;8.636;2023-05-13T05:12:01;11.61;83.30
25945;SHT31;13742;49.306;8.636;2023-05-13T05:13:01;11.63;83.32
25945;SHT31;13742;49.306;8.636;2023-05-13T05:14:01;11.64;83.65
25945;SHT31;13742;49.306;8.636;2023-05-13T05:15:01;11.67;83.32
25945;SHT31;13742;49.306;8.636;2023-05-13T05:16:01;11.67;83.30
25945;SHT31;13742;49.306;8.636;2023-05-13T05:17:01;11.73;83.46
25945;SHT31;13742;49.306;8.636;2023-05-13T05:18:01;11.74;83.36
25945;SHT31;13742;49.306;8.636;2023-05-13T05:19:01;11.76;83.28
25945;SHT31;13742;49.306;8.636;2023-05-13T05:20:01;11.80;83.59
25945;SHT31;13742;49.306;8.636;2023-05-13T05:21:01;11.84;83.79
25945;SHT31;13742;49.306;8.636;2023-05-13T05:22:01;11.85;82.81
25945;SHT31;13742;49.306;8.636;2023-05-13T05:23:01;11.87;82.81
25945;SHT31;13742;49.306;8.636;2023-05-13T05:24:01;11.87;82.82
25945;SHT31;13742;49.306;8.636;2023-05-13T05:25:01;11.90;81.67
25945;SHT31;13742;49.306;8.636;2023-05-13T05:26:01;11.94;81.31
25945;SHT31;13742;49.306;8.636;2023-05-13T05:27:01;11.95;78.48
25945;SHT31;13742;49.306;8.636;2023-05-13T05:28:04;11.97;79.19
25945;SHT31;13742;49.306;8.636;2023-05-13T05:29:01;11.98;79.79
25945;SHT31;13742;49.306;8.636;2023-05-13T05:30:01;12.00;79.61
25945;SHT31;13742;49.306;8.636;2023-05-13T05:31:01;12.06;79.38
25945;SHT31;13742;49.306;8.636;2023-05-13T05:32:01;12.08;78.86
25945;SHT31;13742;49.306;8.636;2023-05-13T05:33:01;12.11;79.75
25945;SHT31;13742;49.306;8.636;2023-05-13T05:34:01;12.12;78.84
25945;SHT31;13742;49.306;8.636;2023-05-13T05:35:03;12.12;79.36
25945;SHT31;13742;49.306;8.636;2023-05-13T05:36:01;12.17;79.78
25945;SHT31;13742;49.306;8.636;2023-05-13T05:37:01;12.18;79.85
25945;SHT31;13742;49.306;8.636;2023-05-13T05:38:05;12.27;79.61
25945;SHT31;13742;49.306;8.636;2023-05-13T05:39:01;12.28;79.08
25945;SHT31;13742;49.306;8.636;2023-05-13T05:40:01;12.36;78.34
25945;SHT31;13742;49.306;8.636;2023-05-13T05:41:01;12.33;78.88
25945;SHT31;13742;49.306;8.636;2023-05-13T05:42:01;12.35;78.02
25945;SHT31;13742;49.306;8.636;2023-05-13T05:43:01;12.38;78.44
25945;SHT31;13742;49.306;8.636;2023-05-13T05:44:01;12.41;79.08
25945;SHT31;13742;49.306;8.636;2023-05-13T05:45:01;12.43;78.03
25945;SHT31;13742;49.306;8.636;2023-05-13T05:46:01;12.48;77.89
25945;SHT31;13742;49.306;8.636;2023-05-13T05:47:01;12.52;77.58
25945;SHT31;13742;49.306;8.636;2023-05-13T05:48:01;12.56;77.51
25945;SHT31;13742;49.306;8.636;2023-05-13T05:49:02;12.57;77.35
25945;SHT31;13742;49.306;8.636;2023-05-13T05:50:01;12.70;75.70
25945;SHT31;13742;49.306;8.636;2023-05-13T05:51:01;12.77;74.36
25945;SHT31;13742;49.306;8.636;2023-05-13T05:52:01;12.77;74.23
25945;SHT31;13742;49.306;8.636;2023-05-13T05:53:02;12.87;73.79
25945;SHT31;13742;49.306;8.636;2023-05-13T05:54:01;12.86;74.18
25945;SHT31;13742;49.306;8.636;2023-05-13T05:57:31;12.84;76.01
25945;SHT31;13742;49.306;8.636;2023-05-13T05:58:03;12.84;75.83
25945;SHT31;13742;49.306;8.636;2023-05-13T05:59:01;12.91;75.12
25945;SHT31;13742;49.306;8.636;2023-05-13T06:00:01;13.03;73.91
25945;SHT31;13742;49.306;8.636;2023-05-13T06:01:01;12.97;75.18
25945;SHT31;13742;49.306;8.636;2023-05-13T06:02:01;12.97;75.25
25945;SHT31;13742;49.306;8.636;2023-05-13T06:03:01;13.10;73.14
25945;SHT31;13742;49.306;8.636;2023-05-13T06:04:02;13.11;72.76
25945;SHT31;13742;49.306;8.636;2023-05-13T06:05:01;13.10;73.37
25945;SHT31;13742;49.306;8.636;2023-05-13T06:06:01;13.11;74.03
25945;SHT31;13742;49.306;8.636;2023-05-13T06:07:01;13.11;73.51
25945;SHT31;13742;49.306;8.636;2023-05-13T06:08:01;13.24;72.94
25945;SHT31;13742;49.306;8.636;2023-05-13T06:09:01;13.22;72.32
25945;SHT31;13742;49.306;8.636;2023-05-13T06:10:01;13.17;73.45
25945;SHT31;13742;49.306;8.636;2023-05-13T06:11:01;13.21;73.46
25945;SHT31;13742;49.306;8.636;2023-05-13T06:12:01;13.20;73.36
25945;SHT31;13742;49.306;8.636;2023-05-13T06:13:01;13.25;72.58
25945;SHT31;13742;49.306;8.636;2023-05-13T06:14:01;13.22;73.69
25945;SHT31;13742;49.306;8.636;2023-05-13T06:15:01;13.22;73.93
25945;SHT31;13742;49.306;8.636;2023-05-13T06:16:01;13.24;73.33
25945;SHT31;13742;49.306;8.636;2023-05-13T06:17:01;13.25;72.52
25945;SHT31;13742;49.306;8.636;2023-05-13T06:18:04;13.25;72.44
25945;SHT31;13742;49.306;8.636;2023-05-13T06:19:01;13.30;72.26
25945;SHT31;13742;49.306;8.636;2023-05-13T06:20:01;13.28;71.65
25945;SHT31;13742;49.306;8.636;2023-05-13T06:21:01;13.27;71.55
25945;SHT31;13742;49.306;8.636;2023-05-13T06:22:01;13.24;72.19
25945;SHT31;13742;49.306;8.636;2023-05-13T06:23:01;13.25;73.03